createdAt,value
2024-05-09T00:00:49.282Z,59.02
2024-05-09T00:03:17.634Z,58.17
2024-05-09T00:05:46.377Z,58.03
2024-05-09T00:08:14.972Z,58.01
2024-05-09T00:10:43.546Z,57.67
2024-05-09T00:13:11.924Z,57.32
2024-05-09T00:15:40.269Z,57.27
2024-05-09T00:18:09.355Z,56.98
2024-05-09T00:20:40.639Z,56.58
2024-05-09T00:23:16.588Z,56.82
2024-05-09T00:25:45.709Z,56.18
2024-05-09T00:28:14.450Z,56.48
2024-05-09T00:30:43.413Z,56.42
2024-05-09T00:33:12.798Z,56.57
2024-05-09T00:35:42.102Z,57.11
2024-05-09T00:38:11.521Z,57.37
2024-05-09T00:40:42.480Z,57.50
2024-05-09T00:43:14.046Z,57.91
2024-05-09T00:45:44.098Z,58.04
2024-05-09T00:48:17.732Z,58.29
2024-05-09T00:50:49.810Z,58.59
2024-05-09T00:53:19.778Z,58.21
2024-05-09T00:55:48.569Z,58.23
2024-05-09T00:58:21.689Z,58.15
2024-05-09T01:00:51.621Z,58.90
2024-05-09T01:03:20.775Z,59.23
2024-05-09T01:05:49.260Z,59.23
2024-05-09T01:08:18.405Z,59.41
2024-05-09T01:10:48.554Z,60.36
2024-05-09T01:13:17.207Z,60.53
2024-05-09T01:15:45.618Z,60.76
2024-05-09T01:18:15.277Z,60.71
2024-05-09T01:20:45.227Z,60.67
2024-05-09T01:23:16.308Z,61.15
2024-05-09T01:25:47.101Z,61.40
2024-05-09T01:28:16.725Z,61.11
2024-05-09T01:30:45.957Z,61.76
2024-05-09T01:33:17.014Z,61.31
2024-05-09T01:35:45.713Z,61.11
2024-05-09T01:38:14.452Z,61.71
2024-05-09T01:40:44.610Z,61.84
2024-05-09T01:43:12.976Z,61.99
2024-05-09T01:45:41.859Z,62.23
2024-05-09T01:48:11.545Z,62.63
2024-05-09T01:50:42.731Z,62.48
2024-05-09T01:53:13.860Z,62.89
2024-05-09T01:55:43.766Z,62.76
2024-05-09T01:58:12.339Z,62.57
2024-05-09T02:00:42.681Z,63.29
2024-05-09T02:03:16.889Z,63.09
2024-05-09T02:05:48.005Z,63.28
2024-05-09T02:08:19.430Z,63.06
2024-05-09T02:10:50.697Z,63.55
2024-05-09T02:13:20.059Z,63.59
2024-05-09T02:15:52.628Z,64.06
2024-05-09T02:18:24.190Z,64.18
2024-05-09T02:20:52.991Z,63.65
2024-05-09T02:23:21.286Z,63.41
2024-05-09T02:25:50.027Z,63.87
2024-05-09T02:28:21.117Z,64.04
2024-05-09T02:30:50.498Z,64.53
2024-05-09T02:33:20.341Z,64.88
2024-05-09T02:35:48.763Z,65.12
2024-05-09T02:38:17.298Z,65.18
2024-05-09T02:40:45.810Z,65.64
2024-05-09T02:43:14.206Z,65.64
2024-05-09T02:45:42.528Z,65.79
2024-05-09T02:48:13.294Z,65.64
2024-05-09T02:50:42.586Z,66.09
2024-05-09T02:53:14.714Z,66.30
2024-05-09T02:55:44.146Z,66.28
2024-05-09T02:58:12.948Z,66.12
2024-05-09T03:00:42.745Z,66.05
2024-05-09T03:03:14.119Z,66.23
2024-05-09T03:05:45.127Z,66.69
2024-05-09T03:08:14.276Z,66.68
2024-05-09T03:10:43.210Z,66.57
2024-05-09T03:13:13.910Z,67.17
2024-05-09T03:15:44.146Z,67.46
2024-05-09T03:18:12.940Z,67.37
2024-05-09T03:20:41.693Z,67.81
2024-05-09T03:23:10.484Z,67.33
2024-05-09T03:25:39.511Z,67.05
2024-05-09T03:28:08.580Z,66.77
2024-05-09T03:30:42.293Z,66.99
2024-05-09T03:33:14.153Z,67.08
2024-05-09T03:35:44.970Z,67.94
2024-05-09T03:38:13.660Z,68.01
2024-05-09T03:40:47.230Z,68.14
2024-05-09T03:43:16.154Z,68.36
2024-05-09T03:45:45.062Z,68.31
2024-05-09T03:48:14.076Z,68.49
2024-05-09T03:50:43.217Z,68.54
2024-05-09T03:53:12.926Z,68.45
2024-05-09T03:55:41.563Z,68.50
2024-05-09T03:58:10.193Z,68.22
2024-05-09T04:00:40.059Z,68.63
2024-05-09T04:03:11.342Z,68.23
2024-05-09T04:05:43.049Z,68.37
2024-05-09T04:08:15.808Z,68.47
2024-05-09T04:10:44.590Z,68.72
2024-05-09T04:13:13.127Z,68.69
2024-05-09T04:15:41.445Z,68.96
2024-05-09T04:18:10.009Z,68.90
2024-05-09T04:20:40.629Z,69.03
2024-05-09T04:23:14.404Z,69.41
2024-05-09T04:25:45.462Z,69.49
2024-05-09T04:28:14.906Z,69.87
2024-05-09T04:30:44.289Z,69.76
2024-05-09T04:33:15.659Z,69.44
2024-05-09T04:35:47.152Z,69.38
2024-05-09T04:38:16.303Z,69.84
2024-05-09T04:40:45.368Z,69.95
2024-05-09T04:43:19.417Z,69.39
2024-05-09T04:45:47.869Z,69.22
2024-05-09T04:48:17.221Z,68.59
2024-05-09T04:50:45.942Z,68.97
2024-05-09T04:53:17.914Z,68.85
2024-05-09T04:55:46.922Z,68.35
2024-05-09T04:58:15.435Z,68.47
2024-05-09T05:00:44.077Z,68.59
2024-05-09T05:03:15.280Z,69.37
2024-05-09T05:05:46.229Z,69.78
2024-05-09T05:08:19.462Z,70.11
2024-05-09T05:10:49.298Z,70.69
2024-05-09T05:13:21.253Z,71.03
2024-05-09T05:15:52.649Z,71.41
2024-05-09T05:18:22.929Z,71.55
2024-05-09T05:20:52.818Z,71.35
2024-05-09T05:23:22.253Z,71.14
2024-05-09T05:25:53.450Z,71.36
2024-05-09T05:28:22.750Z,71.54
2024-05-09T05:30:52.670Z,70.97
2024-05-09T05:33:23.733Z,70.98
2024-05-09T05:35:52.684Z,71.00
2024-05-09T05:38:24.839Z,70.69
2024-05-09T05:40:56.045Z,70.82
2024-05-09T05:43:24.668Z,70.41
2024-05-09T05:45:53.251Z,70.10
2024-05-09T05:48:22.110Z,70.52
2024-05-09T05:50:50.757Z,70.40
2024-05-09T05:53:19.062Z,70.52
2024-05-09T05:55:47.602Z,70.45
2024-05-09T05:58:16.210Z,70.91
2024-05-09T06:00:44.843Z,71.08
2024-05-09T06:03:14.537Z,71.18
2024-05-09T06:05:49.147Z,71.39
2024-05-09T06:08:17.993Z,71.09
2024-05-09T06:10:46.761Z,71.06
2024-05-09T06:13:16.120Z,71.41
2024-05-09T06:15:44.512Z,71.15
2024-05-09T06:18:14.872Z,71.31
2024-05-09T06:20:44.379Z,71.23
2024-05-09T06:23:13.556Z,71.35
2024-05-09T06:25:42.843Z,70.86
2024-05-09T06:28:11.876Z,70.91
2024-05-09T06:30:42.766Z,70.43
2024-05-09T06:33:14.923Z,70.86
2024-05-09T06:35:46.857Z,70.79
2024-05-09T06:38:15.370Z,70.81
2024-05-09T06:40:44.569Z,70.67
2024-05-09T06:43:18.635Z,70.96
2024-05-09T06:45:49.306Z,70.97
2024-05-09T06:48:22.137Z,71.28
2024-05-09T06:50:51.447Z,71.31
2024-05-09T06:53:23.288Z,70.90
2024-05-09T06:55:53.708Z,70.61
2024-05-09T06:58:22.151Z,70.26
2024-05-09T07:00:50.503Z,70.27
2024-05-09T07:03:19.674Z,70.27
2024-05-09T07:05:49.525Z,70.07
2024-05-09T07:08:19.441Z,70.14
2024-05-09T07:10:48.120Z,70.30
2024-05-09T07:13:17.105Z,70.47
2024-05-09T07:15:45.379Z,71.02
2024-05-09T07:18:18.853Z,71.06
2024-05-09T07:20:50.121Z,70.92
2024-05-09T07:23:19.761Z,71.17
2024-05-09T07:25:48.355Z,71.42
2024-05-09T07:28:18.503Z,71.37
2024-05-09T07:30:47.892Z,71.20
2024-05-09T07:33:23.776Z,71.02
2024-05-09T07:35:53.412Z,70.93
2024-05-09T07:38:21.973Z,70.98
2024-05-09T07:40:50.470Z,71.08
2024-05-09T07:43:18.841Z,71.15
2024-05-09T07:45:52.712Z,71.00
2024-05-09T07:52:39.341Z,71.45
2024-05-09T07:53:49.491Z,71.66
2024-05-09T07:56:22.787Z,71.70
2024-05-09T07:58:54.640Z,71.38
2024-05-09T08:01:26.625Z,71.76
2024-05-09T08:03:56.385Z,71.40
2024-05-09T08:06:25.085Z,71.53
2024-05-09T08:08:54.005Z,71.37
2024-05-09T08:11:24.464Z,71.58
2024-05-09T08:13:52.909Z,71.66
2024-05-09T08:16:21.368Z,71.40
2024-05-09T08:18:53.761Z,71.56
2024-05-09T08:21:22.363Z,71.44
2024-05-09T08:23:50.717Z,71.87
2024-05-09T08:26:19.837Z,71.90
2024-05-09T08:28:48.176Z,72.05
2024-05-09T08:31:17.891Z,71.95
2024-05-09T08:33:48.935Z,71.77
2024-05-09T08:36:17.593Z,72.11
2024-05-09T08:38:45.862Z,72.05
2024-05-09T08:41:16.377Z,72.23
2024-05-09T08:43:46.728Z,72.29
2024-05-09T08:46:15.277Z,72.19
2024-05-09T08:48:46.290Z,72.24
2024-05-09T08:51:15.456Z,71.85
2024-05-09T08:53:43.806Z,71.69
2024-05-09T08:56:12.605Z,71.69
2024-05-09T08:58:42.692Z,71.72
2024-05-09T09:01:12.960Z,71.59
2024-05-09T09:03:43.376Z,71.92
2024-05-09T09:06:16.404Z,71.89
2024-05-09T09:08:46.857Z,71.70
2024-05-09T09:11:15.485Z,71.74
2024-05-09T09:13:43.726Z,72.00
2024-05-09T09:16:13.302Z,71.97
2024-05-09T09:18:47.076Z,72.19
2024-05-09T09:21:18.232Z,72.41
2024-05-09T09:23:46.638Z,72.34
2024-05-09T09:26:18.031Z,72.66
2024-05-09T09:28:46.395Z,72.58
2024-05-09T09:31:22.238Z,72.63
2024-05-09T09:33:54.121Z,72.59
2024-05-09T09:36:22.909Z,72.54
2024-05-09T09:38:52.570Z,72.24
2024-05-09T09:41:26.383Z,72.44
2024-05-09T09:43:57.284Z,72.09
2024-05-09T09:46:27.639Z,72.14
2024-05-09T09:48:56.829Z,72.14
2024-05-09T09:51:26.230Z,72.48
2024-05-09T09:53:55.020Z,72.52
2024-05-09T09:56:24.589Z,72.84
2024-05-09T09:58:56.158Z,72.72
2024-05-09T10:01:24.933Z,72.39
2024-05-09T10:03:54.381Z,72.39
2024-05-09T10:06:24.115Z,72.29
2024-05-09T10:08:52.790Z,72.21
2024-05-09T10:11:24.376Z,72.74
2024-05-09T10:13:54.296Z,72.57
2024-05-09T10:16:23.480Z,72.95
2024-05-09T10:18:52.040Z,73.13
2024-05-09T10:21:22.243Z,73.43
2024-05-09T10:24:03.524Z,73.38
2024-05-09T10:26:36.674Z,73.43
2024-05-09T10:29:16.793Z,72.98
2024-05-09T10:31:47.049Z,72.83
2024-05-09T10:34:23.843Z,73.27
2024-05-09T10:36:56.206Z,73.54
2024-05-09T10:39:26.285Z,72.96
2024-05-09T10:41:54.654Z,72.78
2024-05-09T10:44:23.094Z,72.55
2024-05-09T10:46:51.514Z,72.90
2024-05-09T10:49:19.914Z,73.26
2024-05-09T10:51:49.497Z,73.71
2024-05-09T10:54:17.842Z,73.97
2024-05-09T10:56:46.118Z,74.27
2024-05-09T10:59:14.476Z,74.70
2024-05-09T11:01:42.983Z,74.90
2024-05-09T11:04:11.575Z,74.86
2024-05-09T11:06:40.730Z,75.13
2024-05-09T11:09:09.309Z,75.05
2024-05-09T11:11:37.612Z,75.37
2024-05-09T11:14:13.489Z,75.97
2024-05-09T11:16:41.898Z,75.77
2024-05-09T11:19:14.742Z,75.57
2024-05-09T11:21:43.513Z,75.34
2024-05-09T11:24:12.287Z,75.13
2024-05-09T11:26:41.177Z,75.01
2024-05-09T11:29:09.454Z,75.20
2024-05-09T11:31:48.048Z,75.80
2024-05-09T11:34:17.710Z,76.03
2024-05-09T11:36:46.184Z,76.42
2024-05-09T11:39:15.168Z,76.67
2024-05-09T11:41:43.471Z,76.81
2024-05-09T11:44:12.042Z,77.05
2024-05-09T11:46:40.688Z,77.02
2024-05-09T11:49:10.500Z,76.95
2024-05-09T11:51:38.899Z,77.51
2024-05-09T11:54:07.212Z,77.48
2024-05-09T11:56:36.680Z,77.80
2024-05-09T11:59:05.916Z,77.54
2024-05-09T12:01:35.655Z,77.38
2024-05-09T12:04:05.598Z,77.57
2024-05-09T12:06:35.340Z,77.55
2024-05-09T12:09:04.598Z,77.68
2024-05-09T12:11:34.277Z,77.96
2024-05-09T12:14:03.761Z,77.89
2024-05-09T12:16:32.378Z,78.69
2024-05-09T12:19:02.117Z,78.77
2024-05-09T12:21:31.128Z,78.87
2024-05-09T12:23:59.531Z,79.19
2024-05-09T12:26:28.997Z,78.95
2024-05-09T12:28:57.209Z,78.71
2024-05-09T12:31:25.894Z,78.37
2024-05-09T12:33:56.614Z,78.75
2024-05-09T12:36:25.257Z,78.94
2024-05-09T12:38:53.679Z,79.23
2024-05-09T12:41:21.902Z,79.23
2024-05-09T12:43:50.275Z,79.08
2024-05-09T12:46:21.028Z,79.50
2024-05-09T12:48:49.988Z,80.00
2024-05-09T12:51:18.463Z,79.20
2024-05-09T12:53:46.688Z,78.96
2024-05-09T12:56:15.161Z,78.45
2024-05-09T12:58:43.689Z,78.14
2024-05-09T13:01:11.985Z,78.02
2024-05-09T13:03:40.692Z,76.72
2024-05-09T13:06:09.483Z,76.66
2024-05-09T13:08:38.089Z,76.90
2024-05-09T13:11:06.619Z,77.39
2024-05-09T13:13:36.573Z,77.72
2024-05-09T13:16:05.607Z,77.97
2024-05-09T13:18:36.868Z,78.26
2024-05-09T13:21:05.977Z,78.78
2024-05-09T13:23:37.423Z,78.12
2024-05-09T13:26:06.211Z,77.43
2024-05-09T13:28:35.521Z,77.68
2024-05-09T13:31:05.968Z,77.58
2024-05-09T13:33:35.697Z,77.54
2024-05-09T13:36:05.633Z,78.07
2024-05-09T13:38:35.025Z,77.69
2024-05-09T13:41:04.088Z,77.12
2024-05-09T13:43:33.696Z,76.85
2024-05-09T13:46:02.319Z,76.25
2024-05-09T13:48:31.792Z,75.20
2024-05-09T13:51:01.186Z,74.30
2024-05-09T13:53:30.708Z,74.19
2024-05-09T13:55:58.960Z,73.95
2024-05-09T13:58:27.471Z,73.60
2024-05-09T14:00:56.035Z,73.54
2024-05-09T14:03:25.106Z,73.12
2024-05-09T14:05:53.881Z,73.40
2024-05-09T14:08:23.143Z,73.44
2024-05-09T14:10:52.847Z,73.57
2024-05-09T14:13:21.303Z,73.98
2024-05-09T14:15:49.798Z,73.93
2024-05-09T14:18:18.589Z,74.46
2024-05-09T14:20:46.909Z,74.59
2024-05-09T14:23:18.272Z,74.64
2024-05-09T14:25:50.076Z,74.82
2024-05-09T14:28:21.557Z,74.86
2024-05-09T14:30:50.741Z,75.16
2024-05-09T14:33:25.744Z,75.66
2024-05-09T14:35:54.792Z,75.28
2024-05-09T14:38:25.699Z,73.97
2024-05-09T14:40:54.678Z,74.41
2024-05-09T14:43:23.129Z,74.57
2024-05-09T14:45:51.918Z,74.30
2024-05-09T14:48:20.790Z,73.92
2024-05-09T14:50:49.479Z,73.32
2024-05-09T14:53:17.878Z,72.38
2024-05-09T14:55:46.207Z,72.20
2024-05-09T14:58:14.854Z,72.10
2024-05-09T15:00:47.947Z,72.68
2024-05-09T15:03:22.964Z,72.88
2024-05-09T15:05:52.493Z,73.31
2024-05-09T15:08:21.004Z,73.36
2024-05-09T15:10:52.729Z,73.50
2024-05-09T15:13:21.877Z,73.25
2024-05-09T15:15:50.714Z,73.11
2024-05-09T15:18:19.713Z,73.02
2024-05-09T15:20:48.934Z,72.68
2024-05-09T15:23:17.394Z,72.61
2024-05-09T15:25:45.888Z,72.57
2024-05-09T15:28:14.530Z,72.62
2024-05-09T15:30:46.315Z,72.44
2024-05-09T15:33:16.267Z,72.75
2024-05-09T15:35:47.264Z,72.59
2024-05-09T15:38:16.789Z,72.59
2024-05-09T15:40:47.374Z,72.12
2024-05-09T15:43:15.870Z,71.37
2024-05-09T15:45:44.493Z,71.32
2024-05-09T15:48:13.203Z,71.09
2024-05-09T15:50:42.732Z,70.84
2024-05-09T15:53:13.748Z,71.02
2024-05-09T15:55:43.281Z,71.39
2024-05-09T15:58:13.007Z,71.01
2024-05-09T16:00:44.322Z,71.06
2024-05-09T16:03:15.103Z,71.42
2024-05-09T16:05:48.317Z,72.23
2024-05-09T16:08:17.227Z,72.51
2024-05-09T16:10:47.653Z,72.27
2024-05-09T16:13:17.720Z,71.55
2024-05-09T16:15:50.440Z,71.82
2024-05-09T16:18:19.083Z,71.51
2024-05-09T16:20:49.956Z,71.95
2024-05-09T16:23:19.204Z,71.50
2024-05-09T16:25:48.639Z,70.73
2024-05-09T16:28:19.172Z,70.15
2024-05-09T16:30:49.925Z,69.25
2024-05-09T16:33:24.234Z,69.19
2024-05-09T16:35:53.292Z,68.74
2024-05-09T16:38:21.582Z,68.34
2024-05-09T16:40:51.575Z,68.01
2024-05-09T16:43:20.115Z,68.38
2024-05-09T16:45:48.490Z,68.49
2024-05-09T16:48:17.402Z,68.22
2024-05-09T16:50:45.670Z,67.96
2024-05-09T16:53:14.291Z,67.40
2024-05-09T16:55:42.517Z,67.40
2024-05-09T16:58:12.863Z,67.53
2024-05-09T17:00:43.696Z,66.43
2024-05-09T17:03:15.668Z,66.67
2024-05-09T17:05:47.370Z,66.14
2024-05-09T17:08:17.647Z,65.66
2024-05-09T17:10:49.522Z,65.81
2024-05-09T17:13:19.848Z,65.57
2024-05-09T17:15:49.288Z,65.93
2024-05-09T17:18:18.186Z,65.02
2024-05-09T17:20:46.501Z,65.54
2024-05-09T17:23:15.394Z,65.83
2024-05-09T17:25:44.111Z,65.38
2024-05-09T17:28:12.878Z,65.52
2024-05-09T17:30:42.977Z,65.98
2024-05-09T17:33:13.349Z,66.16
2024-05-09T17:35:42.361Z,65.82
2024-05-09T17:38:10.677Z,65.51
2024-05-09T17:40:39.685Z,65.92
2024-05-09T17:43:11.221Z,65.32
2024-05-09T17:45:41.618Z,64.99
2024-05-09T17:48:12.333Z,64.79
2024-05-09T17:50:41.886Z,64.47
2024-05-09T17:53:11.335Z,64.78
2024-05-09T17:55:41.124Z,64.35
2024-05-09T17:58:10.429Z,64.37
2024-05-09T18:00:41.654Z,64.09
2024-05-09T18:03:12.873Z,64.39
2024-05-09T18:05:43.522Z,64.14
2024-05-09T18:08:13.846Z,64.31
2024-05-09T18:10:42.864Z,64.38
2024-05-09T18:13:12.613Z,64.34
2024-05-09T18:15:41.680Z,63.94
2024-05-09T18:18:11.022Z,64.15
2024-05-09T18:20:44.041Z,64.71
2024-05-09T18:23:17.101Z,64.12
2024-05-09T18:25:47.337Z,64.18
2024-05-09T18:28:17.162Z,64.46
2024-05-09T18:30:47.402Z,64.38
2024-05-09T18:33:16.925Z,64.11
2024-05-09T18:35:45.881Z,64.12
2024-05-09T18:38:14.417Z,63.84
2024-05-09T18:40:45.913Z,63.71
2024-05-09T18:43:28.482Z,63.82
2024-05-09T18:46:00.747Z,63.48
2024-05-09T18:48:29.320Z,63.51
2024-05-09T18:50:57.997Z,63.56
2024-05-09T18:53:26.315Z,64.03
2024-05-09T18:55:54.707Z,63.94
2024-05-09T18:58:23.032Z,64.05
2024-05-09T19:00:54.309Z,64.20
2024-05-09T19:03:24.887Z,63.14
2024-05-09T19:05:53.428Z,62.15
2024-05-09T19:08:21.735Z,62.00
2024-05-09T19:10:52.812Z,62.03
2024-05-09T19:13:21.562Z,61.81
2024-05-09T19:15:50.034Z,62.22
2024-05-09T19:18:18.510Z,62.82
2024-05-09T19:20:46.915Z,62.02
2024-05-09T19:23:15.296Z,61.61
2024-05-09T19:25:43.542Z,61.62
2024-05-09T19:28:12.143Z,61.16
2024-05-09T19:30:42.533Z,61.15
2024-05-09T19:33:13.682Z,60.91
2024-05-09T19:35:43.815Z,61.16
2024-05-09T19:38:12.726Z,60.94
2024-05-09T19:40:41.336Z,60.62
2024-05-09T19:43:10.017Z,59.91
2024-05-09T19:45:40.289Z,60.20
2024-05-09T19:48:09.249Z,59.57
2024-05-09T19:50:42.822Z,59.36
2024-05-09T19:53:14.114Z,58.75
2024-05-09T19:55:42.959Z,58.94
2024-05-09T19:58:12.702Z,58.91
2024-05-09T20:00:43.358Z,58.56
2024-05-09T20:03:15.950Z,58.53
2024-05-09T20:05:47.839Z,58.85
2024-05-09T20:08:17.270Z,58.47
2024-05-09T20:10:45.616Z,58.59
2024-05-09T20:13:14.363Z,58.57
2024-05-09T20:15:42.898Z,58.35
2024-05-09T20:18:12.101Z,58.21
2024-05-09T20:20:43.018Z,57.90
2024-05-09T20:23:13.789Z,57.53
2024-05-09T20:25:43.204Z,57.82
2024-05-09T20:28:11.846Z,57.59
2024-05-09T20:30:40.664Z,57.56
2024-05-09T20:33:10.568Z,56.90
2024-05-09T20:35:39.103Z,56.78
2024-05-09T20:38:07.585Z,56.85
2024-05-09T20:40:38.668Z,56.60
2024-05-09T20:43:10.353Z,56.10
2024-05-09T20:45:41.620Z,55.56
2024-05-09T20:48:10.670Z,55.71
2024-05-09T20:50:41.747Z,55.36
2024-05-09T20:53:13.653Z,55.53
2024-05-09T20:55:46.160Z,55.66
2024-05-09T20:58:14.841Z,55.39
2024-05-09T21:00:45.788Z,55.48
2024-05-09T21:03:17.032Z,55.51
2024-05-09T21:05:47.462Z,55.22
2024-05-09T21:08:17.078Z,55.27
2024-05-09T21:10:45.485Z,55.79
2024-05-09T21:13:13.876Z,55.68
2024-05-09T21:15:42.406Z,55.36
2024-05-09T21:18:11.083Z,55.64
2024-05-09T21:20:39.392Z,55.48
2024-05-09T21:23:07.745Z,55.61
2024-05-09T21:25:36.439Z,55.65
2024-05-09T21:28:06.203Z,55.73
2024-05-09T21:30:41.541Z,55.76
2024-05-09T21:33:14.076Z,55.80
2024-05-09T21:35:46.168Z,55.79
2024-05-09T21:38:16.490Z,56.19
2024-05-09T21:40:45.408Z,56.20
2024-05-09T21:43:14.961Z,56.04
2024-05-09T21:45:45.772Z,56.12
2024-05-09T21:48:14.420Z,56.56
2024-05-09T21:50:43.029Z,56.31
2024-05-09T21:53:13.202Z,56.66
2024-05-09T21:55:43.181Z,57.00
2024-05-09T21:58:14.053Z,57.24
2024-05-09T22:00:46.073Z,57.17
2024-05-09T22:03:15.125Z,57.09
2024-05-09T22:05:45.423Z,56.89
2024-05-09T22:08:14.216Z,57.33
2024-05-09T22:10:42.766Z,57.24
2024-05-09T22:13:11.347Z,57.50
2024-05-09T22:15:40.886Z,57.38
2024-05-09T22:18:11.032Z,57.12
2024-05-09T22:20:47.579Z,57.22
2024-05-09T22:23:16.386Z,57.16
2024-05-09T22:25:44.831Z,57.39
2024-05-09T22:28:15.964Z,57.52
2024-05-09T22:30:47.641Z,57.55
2024-05-09T22:33:17.130Z,57.72
2024-05-09T22:35:45.804Z,57.75
2024-05-09T22:38:14.454Z,58.08
2024-05-09T22:40:48.108Z,57.88
2024-05-09T22:43:23.750Z,58.25
2024-05-09T22:45:57.701Z,58.21
2024-05-09T22:48:26.652Z,58.03
2024-05-09T22:50:55.602Z,58.40
2024-05-09T22:53:25.757Z,58.64
2024-05-09T22:55:55.225Z,58.39
2024-05-09T22:58:24.118Z,58.83
2024-05-09T23:00:53.470Z,58.63
2024-05-09T23:03:22.945Z,58.63
2024-05-09T23:05:51.398Z,58.91
2024-05-09T23:08:19.684Z,59.12
2024-05-09T23:10:48.116Z,59.13
2024-05-09T23:13:16.437Z,59.22
2024-05-09T23:15:44.838Z,59.38
2024-05-09T23:18:13.464Z,59.31
2024-05-09T23:20:42.107Z,59.28
2024-05-09T23:23:11.948Z,59.39
2024-05-09T23:25:43.551Z,59.88
2024-05-09T23:28:13.299Z,59.90
2024-05-09T23:30:42.803Z,59.94
2024-05-09T23:33:14.177Z,59.92
2024-05-09T23:35:44.489Z,60.20
2024-05-09T23:38:13.590Z,60.50
2024-05-09T23:40:42.987Z,60.62
2024-05-09T23:43:13.073Z,60.74
2024-05-09T23:45:42.535Z,60.82
2024-05-09T23:48:11.446Z,61.27
2024-05-09T23:50:40.842Z,61.28
2024-05-09T23:53:10.634Z,61.31
2024-05-09T23:55:39.803Z,61.45
2024-05-09T23:58:08.851Z,61.89
